createdAt,value
2022-12-09T00:01:15.828Z,15.70
2022-12-09T00:04:01.447Z,16.30
2022-12-09T00:06:46.574Z,16.67
2022-12-09T00:09:32.045Z,17.45
2022-12-09T00:12:17.009Z,15.35
2022-12-09T00:15:02.372Z,16.85
2022-12-09T00:17:47.592Z,16.48
2022-12-09T00:20:32.676Z,16.55
2022-12-09T00:23:18.233Z,17.35
2022-12-09T00:26:03.425Z,17.38
2022-12-09T00:28:49.505Z,17.30
2022-12-09T00:31:36.752Z,17.73
2022-12-09T00:34:22.114Z,16.52
2022-12-09T00:37:07.527Z,16.77
2022-12-09T00:39:52.875Z,15.77
2022-12-09T00:42:38.241Z,16.95
2022-12-09T00:45:24.074Z,16.65
2022-12-09T00:48:09.198Z,17.45
2022-12-09T00:50:54.967Z,16.75
2022-12-09T00:53:41.221Z,16.77
2022-12-09T00:56:28.961Z,17.55
2022-12-09T00:59:14.400Z,15.60
2022-12-09T01:01:59.586Z,16.75
2022-12-09T01:04:44.852Z,18.25
2022-12-09T01:07:30.058Z,17.52
2022-12-09T01:10:15.486Z,17.50
2022-12-09T01:13:12.022Z,17.94
2022-12-09T01:15:57.456Z,18.15
2022-12-09T01:18:42.882Z,17.38
2022-12-09T01:21:28.980Z,18.77
2022-12-09T01:24:14.786Z,18.55
2022-12-09T01:27:00.233Z,18.52
2022-12-09T01:29:45.553Z,18.58
2022-12-09T01:32:31.136Z,18.33
2022-12-09T01:35:16.728Z,17.77
2022-12-09T01:38:02.140Z,18.50
2022-12-09T01:40:47.687Z,17.70
2022-12-09T01:43:33.219Z,16.90
2022-12-09T01:46:18.480Z,16.58
2022-12-09T01:49:04.633Z,15.00
2022-12-09T01:51:58.228Z,16.13
2022-12-09T01:54:45.955Z,15.88
2022-12-09T01:57:31.088Z,15.07
2022-12-09T02:00:16.876Z,16.80
2022-12-09T02:03:02.735Z,16.63
2022-12-09T02:05:47.972Z,15.75
2022-12-09T02:08:33.357Z,15.80
2022-12-09T02:11:40.091Z,15.07
2022-12-09T02:14:34.659Z,15.88
2022-12-09T02:17:26.162Z,17.30
2022-12-09T02:20:35.021Z,17.95
2022-12-09T02:23:28.132Z,16.95
2022-12-09T02:26:31.594Z,16.15
2022-12-09T02:29:44.070Z,16.55
2022-12-09T02:32:56.958Z,15.60
2022-12-09T02:35:57.454Z,15.93
2022-12-09T02:38:43.716Z,15.82
2022-12-09T02:41:32.631Z,15.07
2022-12-09T02:44:21.190Z,15.80
2022-12-09T02:47:09.756Z,16.27
2022-12-09T02:50:00.807Z,16.17
2022-12-09T02:52:49.064Z,15.85
2022-12-09T02:55:35.942Z,17.00
2022-12-09T02:58:20.965Z,16.98
2022-12-09T03:01:06.580Z,17.00
2022-12-09T03:03:54.620Z,17.30
2022-12-09T03:06:50.994Z,17.90
2022-12-09T03:09:39.441Z,16.00
2022-12-09T03:12:32.052Z,16.42
2022-12-09T03:15:21.257Z,16.88
2022-12-09T03:18:11.711Z,17.20
2022-12-09T03:20:57.851Z,17.08
2022-12-09T03:23:45.060Z,15.80
2022-12-09T03:26:33.877Z,18.02
2022-12-09T03:29:23.292Z,16.70
2022-12-09T03:32:11.880Z,16.13
2022-12-09T03:35:05.367Z,16.50
2022-12-09T03:37:53.121Z,17.05
2022-12-09T03:40:39.941Z,16.00
2022-12-09T03:43:30.365Z,17.92
2022-12-09T03:46:15.791Z,16.70
2022-12-09T03:49:01.185Z,17.83
2022-12-09T03:51:51.200Z,16.40
2022-12-09T03:54:44.607Z,17.58
2022-12-09T03:57:30.373Z,17.10
2022-12-09T04:00:18.274Z,17.50
2022-12-09T04:03:05.320Z,17.08
2022-12-09T04:05:50.750Z,15.82
2022-12-09T04:08:36.304Z,16.63
2022-12-09T04:11:21.712Z,16.40
2022-12-09T04:14:11.898Z,17.00
2022-12-09T04:17:00.481Z,15.75
2022-12-09T04:19:46.113Z,17.52
2022-12-09T04:22:31.297Z,16.63
2022-12-09T04:25:16.511Z,16.08
2022-12-09T04:28:01.847Z,16.40
2022-12-09T04:30:47.779Z,16.52
2022-12-09T04:33:33.265Z,15.65
2022-12-09T04:36:20.308Z,15.20
2022-12-09T04:39:06.151Z,15.00
2022-12-09T04:41:51.537Z,16.08
2022-12-09T04:44:36.543Z,14.88
2022-12-09T04:47:22.080Z,14.98
2022-12-09T04:50:08.079Z,14.40
2022-12-09T04:52:53.471Z,14.48
2022-12-09T04:55:38.542Z,14.63
2022-12-09T04:58:23.499Z,13.93
2022-12-09T05:01:12.148Z,13.20
2022-12-09T05:03:57.952Z,14.55
2022-12-09T05:06:44.029Z,13.85
2022-12-09T05:09:29.631Z,14.38
2022-12-09T05:12:15.233Z,12.57
2022-12-09T05:15:00.811Z,13.25
2022-12-09T05:17:46.242Z,13.25
2022-12-09T05:20:31.730Z,13.85
2022-12-09T05:23:17.092Z,14.18
2022-12-09T05:26:04.719Z,13.30
2022-12-09T05:28:51.061Z,12.98
2022-12-09T05:31:37.114Z,13.43
2022-12-09T05:34:22.755Z,13.40
2022-12-09T05:37:08.300Z,14.43
2022-12-09T05:39:53.710Z,13.10
2022-12-09T05:42:41.655Z,14.73
2022-12-09T05:45:27.397Z,13.27
2022-12-09T05:48:12.577Z,14.13
2022-12-09T05:51:03.718Z,14.05
2022-12-09T05:53:49.832Z,14.05
2022-12-09T05:56:35.472Z,13.60
2022-12-09T05:59:21.078Z,13.90
2022-12-09T06:02:09.967Z,15.43
2022-12-09T06:04:56.217Z,14.73
2022-12-09T06:07:41.890Z,15.75
2022-12-09T06:10:27.859Z,15.27
2022-12-09T06:13:13.429Z,16.55
2022-12-09T06:16:04.267Z,16.65
2022-12-09T06:18:50.449Z,17.90
2022-12-09T06:21:39.779Z,17.15
2022-12-09T06:24:25.153Z,17.07
2022-12-09T06:27:10.487Z,17.35
2022-12-09T06:29:56.045Z,16.17
2022-12-09T06:32:41.618Z,17.83
2022-12-09T06:35:27.629Z,17.10
2022-12-09T06:38:13.020Z,17.30
2022-12-09T06:40:58.328Z,16.85
2022-12-09T06:43:43.994Z,17.27
2022-12-09T06:46:29.737Z,17.73
2022-12-09T06:49:15.118Z,16.83
2022-12-09T06:52:00.550Z,16.38
2022-12-09T06:54:46.133Z,16.83
2022-12-09T06:57:31.747Z,16.83
2022-12-09T07:00:17.119Z,17.30
2022-12-09T07:03:03.003Z,16.58
2022-12-09T07:05:49.132Z,17.73
2022-12-09T07:08:34.887Z,17.58
2022-12-09T07:11:20.524Z,17.77
2022-12-09T07:14:06.735Z,17.65
2022-12-09T07:16:52.267Z,17.13
2022-12-09T07:19:38.037Z,17.92
2022-12-09T07:22:23.845Z,17.23
2022-12-09T07:25:09.955Z,18.00
2022-12-09T07:27:55.821Z,18.73
2022-12-09T07:30:41.484Z,18.73
2022-12-09T07:33:27.935Z,17.75
2022-12-09T07:36:20.520Z,17.55
2022-12-09T07:39:09.025Z,17.92
2022-12-09T07:41:58.989Z,18.48
2022-12-09T07:47:30.282Z,17.52
2022-12-09T07:50:15.536Z,17.67
2022-12-09T07:53:01.334Z,18.25
2022-12-09T07:55:46.678Z,19.67
2022-12-09T07:58:32.922Z,18.98
2022-12-09T08:01:21.036Z,21.00
2022-12-09T08:04:07.268Z,18.25
2022-12-09T08:06:52.841Z,18.83
2022-12-09T08:09:38.646Z,18.00
2022-12-09T08:12:24.310Z,19.20
2022-12-09T08:15:10.612Z,19.90
2022-12-09T08:17:56.812Z,18.58
2022-12-09T08:20:42.853Z,19.52
2022-12-09T08:23:28.527Z,25.35
2022-12-09T08:26:16.124Z,21.40
2022-12-09T08:29:01.963Z,25.45
2022-12-09T08:31:47.585Z,29.38
2022-12-09T08:34:33.368Z,28.83
2022-12-09T08:37:18.836Z,28.27
2022-12-09T08:40:04.513Z,25.38
2022-12-09T08:42:50.703Z,22.60
2022-12-09T08:45:38.141Z,21.90
2022-12-09T08:48:23.811Z,22.33
2022-12-09T08:51:11.536Z,25.95
2022-12-09T08:53:58.681Z,32.80
2022-12-09T08:56:49.291Z,25.10
2022-12-09T08:59:35.845Z,27.88
2022-12-09T09:02:22.982Z,27.45
2022-12-09T09:05:08.559Z,24.30
2022-12-09T09:07:54.192Z,27.15
2022-12-09T09:10:39.917Z,21.48
2022-12-09T09:13:25.779Z,17.98
2022-12-09T09:16:13.999Z,17.20
2022-12-09T09:18:59.316Z,17.60
2022-12-09T09:21:44.478Z,17.75
2022-12-09T09:24:30.140Z,18.27
2022-12-09T09:27:15.466Z,18.25
2022-12-09T09:30:00.781Z,18.95
2022-12-09T09:32:46.429Z,17.60
2022-12-09T09:35:31.798Z,18.73
2022-12-09T09:38:17.680Z,17.60
2022-12-09T09:41:18.986Z,18.15
2022-12-09T09:44:18.199Z,18.50
2022-12-09T09:47:14.011Z,17.60
2022-12-09T09:50:05.538Z,18.30
2022-12-09T09:52:53.212Z,19.02
2022-12-09T09:55:47.434Z,18.52
2022-12-09T09:58:45.066Z,19.02
2022-12-09T10:01:34.618Z,20.48
2022-12-09T10:04:50.905Z,20.40
2022-12-09T10:07:42.217Z,20.50
2022-12-09T10:10:34.309Z,19.80
2022-12-09T10:14:05.265Z,21.48
2022-12-09T10:17:23.440Z,21.92
2022-12-09T10:20:15.975Z,21.92
2022-12-09T10:23:11.338Z,21.63
2022-12-09T10:26:03.221Z,22.08
2022-12-09T10:28:54.340Z,22.73
2022-12-09T10:31:39.672Z,21.85
2022-12-09T10:34:25.695Z,21.67
2022-12-09T10:37:23.731Z,21.90
2022-12-09T10:40:12.346Z,20.00
2022-12-09T10:43:18.400Z,21.98
2022-12-09T10:46:18.337Z,24.25
2022-12-09T10:49:05.073Z,21.23
2022-12-09T10:51:52.400Z,23.40
2022-12-09T10:54:40.950Z,20.98
2022-12-09T10:57:29.750Z,20.30
2022-12-09T11:00:27.151Z,26.52
2022-12-09T11:03:30.616Z,26.35
2022-12-09T11:06:24.743Z,23.27
2022-12-09T11:09:22.460Z,25.75
2022-12-09T11:12:34.834Z,22.70
2022-12-09T11:15:27.240Z,21.00
2022-12-09T11:18:44.343Z,21.17
2022-12-09T11:21:36.101Z,21.92
2022-12-09T11:24:24.935Z,22.15
2022-12-09T11:27:25.007Z,21.80
2022-12-09T11:30:17.854Z,22.05
2022-12-09T11:33:19.511Z,22.50
2022-12-09T11:36:17.979Z,24.08
2022-12-09T11:39:21.803Z,24.33
2022-12-09T11:42:19.783Z,27.73
2022-12-09T11:45:28.854Z,21.83
2022-12-09T11:48:36.215Z,23.15
2022-12-09T11:51:30.232Z,21.52
2022-12-09T11:54:31.349Z,24.55
2022-12-09T11:57:48.378Z,22.88
2022-12-09T12:00:49.192Z,24.38
2022-12-09T12:03:37.252Z,24.10
2022-12-09T12:06:26.360Z,30.88
2022-12-09T12:09:43.168Z,24.33
2022-12-09T12:12:44.050Z,22.10
2022-12-09T12:15:37.791Z,23.00
2022-12-09T12:18:23.770Z,22.80
2022-12-09T12:21:36.758Z,22.75
2022-12-09T12:24:54.615Z,20.55
2022-12-09T12:28:07.580Z,21.45
2022-12-09T12:31:06.316Z,19.33
2022-12-09T12:34:22.950Z,21.02
2022-12-09T12:37:24.371Z,21.55
2022-12-09T12:41:03.974Z,19.35
2022-12-09T12:44:18.465Z,18.38
2022-12-09T12:47:18.133Z,21.00
2022-12-09T12:50:12.202Z,20.77
2022-12-09T12:53:51.828Z,21.30
2022-12-09T12:56:50.328Z,18.25
2022-12-09T13:00:01.336Z,20.55
2022-12-09T13:02:55.525Z,19.40
2022-12-09T13:05:50.321Z,21.93
2022-12-09T13:08:52.665Z,21.58
2022-12-09T13:12:05.639Z,20.60
2022-12-09T13:14:55.527Z,19.52
2022-12-09T13:17:42.263Z,17.83
2022-12-09T13:20:39.590Z,17.17
2022-12-09T13:23:52.376Z,16.83
2022-12-09T13:26:57.596Z,17.30
2022-12-09T13:30:15.149Z,17.23
2022-12-09T13:33:39.599Z,19.13
2022-12-09T13:36:40.856Z,18.60
2022-12-09T13:39:41.604Z,16.02
2022-12-09T13:42:47.320Z,17.05
2022-12-09T13:45:45.175Z,17.20
2022-12-09T13:48:30.581Z,18.05
2022-12-09T13:51:17.612Z,17.08
2022-12-09T13:54:06.917Z,16.50
2022-12-09T13:57:35.480Z,17.20
2022-12-09T14:00:20.896Z,18.02
2022-12-09T14:03:31.452Z,18.52
2022-12-09T14:06:32.139Z,19.58
2022-12-09T14:09:39.423Z,19.10
2022-12-09T14:12:32.577Z,20.00
2022-12-09T14:15:23.793Z,19.80
2022-12-09T14:18:28.014Z,19.30
2022-12-09T14:21:19.294Z,20.13
2022-12-09T14:24:16.288Z,19.77
2022-12-09T14:27:01.221Z,20.42
2022-12-09T14:29:51.412Z,20.10
2022-12-09T14:32:52.613Z,19.25
2022-12-09T14:35:50.970Z,19.63
2022-12-09T14:39:16.068Z,18.83
2022-12-09T14:41:59.159Z,18.33
2022-12-09T14:44:47.096Z,19.83
2022-12-09T14:47:34.288Z,18.17
2022-12-09T14:50:23.092Z,19.60
2022-12-09T14:53:26.782Z,18.60
2022-12-09T14:56:20.749Z,18.65
2022-12-09T14:59:09.804Z,18.77
2022-12-09T15:01:57.008Z,18.93
2022-12-09T15:04:45.625Z,18.35
2022-12-09T15:07:33.144Z,20.23
2022-12-09T15:10:30.906Z,18.98
2022-12-09T15:13:20.050Z,19.77
2022-12-09T15:16:11.198Z,20.50
2022-12-09T15:18:56.380Z,21.95
2022-12-09T15:21:46.777Z,20.45
2022-12-09T15:24:49.214Z,18.77
2022-12-09T15:27:35.576Z,20.30
2022-12-09T15:30:23.487Z,20.42
2022-12-09T15:33:17.593Z,21.42
2022-12-09T15:36:07.909Z,22.98
2022-12-09T15:38:58.013Z,24.48
2022-12-09T15:45:11.710Z,24.80
2022-12-09T15:48:20.696Z,31.40
2022-12-09T15:51:10.915Z,28.00
2022-12-09T15:54:06.801Z,26.92
2022-12-09T15:57:03.883Z,23.77
2022-12-09T15:59:57.031Z,24.40
2022-12-09T16:02:45.432Z,23.85
2022-12-09T16:05:30.699Z,23.88
2022-12-09T16:08:16.106Z,25.10
2022-12-09T16:11:01.475Z,25.02
2022-12-09T16:13:57.955Z,24.10
2022-12-09T16:17:00.353Z,24.92
2022-12-09T16:19:45.724Z,25.67
2022-12-09T16:22:32.179Z,24.63
2022-12-09T16:25:23.715Z,24.20
2022-12-09T16:28:22.506Z,24.20
2022-12-09T16:31:18.508Z,23.27
2022-12-09T16:34:03.913Z,22.65
2022-12-09T16:36:55.409Z,24.48
2022-12-09T16:39:40.537Z,25.02
2022-12-09T16:42:34.166Z,25.27
2022-12-09T16:45:35.482Z,26.40
2022-12-09T16:48:22.419Z,25.80
2022-12-09T16:51:14.094Z,25.55
2022-12-09T16:54:00.268Z,23.55
2022-12-09T16:56:45.865Z,22.73
2022-12-09T16:59:37.564Z,21.05
2022-12-09T17:02:33.077Z,22.67
2022-12-09T17:05:18.445Z,22.92
2022-12-09T17:08:04.143Z,23.08
2022-12-09T17:10:49.677Z,22.90
2022-12-09T17:13:35.593Z,23.73
2022-12-09T17:16:24.044Z,21.85
2022-12-09T17:19:09.377Z,24.27
2022-12-09T17:21:55.357Z,23.65
2022-12-09T17:24:40.447Z,22.77
2022-12-09T17:27:25.841Z,22.65
2022-12-09T17:30:11.741Z,24.20
2022-12-09T17:32:59.704Z,24.77
2022-12-09T17:35:45.191Z,23.77
2022-12-09T17:38:30.141Z,24.10
2022-12-09T17:41:20.486Z,23.35
2022-12-09T17:46:50.672Z,22.85
2022-12-09T17:49:36.169Z,23.10
2022-12-09T17:52:21.305Z,22.77
2022-12-09T17:55:07.747Z,24.30
2022-12-09T17:57:54.422Z,23.45
2022-12-09T18:00:40.348Z,23.35
2022-12-09T18:03:53.737Z,22.48
2022-12-09T18:06:34.824Z,23.90
2022-12-09T18:09:20.407Z,27.55
2022-12-09T18:12:05.830Z,29.05
2022-12-09T18:14:50.965Z,29.65
2022-12-09T18:17:36.292Z,28.23
2022-12-09T18:20:21.504Z,27.30
2022-12-09T18:23:06.487Z,29.10
2022-12-09T18:25:51.734Z,28.85
2022-12-09T18:28:37.710Z,29.33
2022-12-09T18:31:24.760Z,29.27
2022-12-09T18:34:10.142Z,29.27
2022-12-09T18:36:55.393Z,28.42
2022-12-09T18:39:40.932Z,27.95
2022-12-09T18:42:25.936Z,28.65
2022-12-09T18:45:11.016Z,28.50
2022-12-09T18:47:56.264Z,28.67
2022-12-09T18:50:41.494Z,29.90
2022-12-09T18:53:27.453Z,27.63
2022-12-09T18:56:13.665Z,28.55
2022-12-09T18:59:07.947Z,28.33
2022-12-09T19:01:54.574Z,27.60
2022-12-09T19:04:39.862Z,28.65
2022-12-09T19:07:30.568Z,27.90
2022-12-09T19:10:17.590Z,27.30
2022-12-09T19:13:04.830Z,26.30
2022-12-09T19:15:49.901Z,26.52
2022-12-09T19:18:35.029Z,28.33
2022-12-09T19:21:22.766Z,28.85
2022-12-09T19:24:12.542Z,27.58
2022-12-09T19:29:43.108Z,24.70
2022-12-09T19:32:52.444Z,26.02
2022-12-09T19:35:36.243Z,24.58
2022-12-09T19:38:21.402Z,25.13
2022-12-09T19:41:07.082Z,23.17
2022-12-09T19:43:57.085Z,23.92
2022-12-09T19:46:42.111Z,24.83
2022-12-09T19:49:27.445Z,25.23
2022-12-09T19:52:12.740Z,24.38
2022-12-09T19:54:57.996Z,25.38
2022-12-09T19:57:43.194Z,25.00
2022-12-09T20:00:28.427Z,25.52
2022-12-09T20:03:13.697Z,24.65
2022-12-09T20:05:58.799Z,24.63
2022-12-09T20:08:45.084Z,23.55
2022-12-09T20:11:31.784Z,25.15
2022-12-09T20:14:16.705Z,23.75
2022-12-09T20:17:02.061Z,25.13
2022-12-09T20:19:47.285Z,22.73
2022-12-09T20:22:32.469Z,22.30
2022-12-09T20:25:17.541Z,23.50
2022-12-09T20:28:03.534Z,22.98
2022-12-09T20:30:48.620Z,22.23
2022-12-09T20:33:34.401Z,23.38
2022-12-09T20:36:21.494Z,23.65
2022-12-09T20:39:15.050Z,22.02
2022-12-09T20:42:00.519Z,22.48
2022-12-09T20:44:45.822Z,22.45
2022-12-09T20:47:31.134Z,22.75
2022-12-09T20:50:16.420Z,22.23
2022-12-09T20:53:01.701Z,24.05
2022-12-09T20:55:56.627Z,23.42
2022-12-09T20:58:43.292Z,22.42
2022-12-09T21:01:33.554Z,22.00
2022-12-09T21:04:18.898Z,22.20
2022-12-09T21:07:04.154Z,22.33
2022-12-09T21:09:49.421Z,22.17
2022-12-09T21:12:35.114Z,22.67
2022-12-09T21:15:20.537Z,20.83
2022-12-09T21:18:05.668Z,24.63
2022-12-09T21:20:50.789Z,23.33
2022-12-09T21:23:37.112Z,23.15
2022-12-09T21:26:24.744Z,21.88
2022-12-09T21:29:11.467Z,22.27
2022-12-09T21:31:56.599Z,22.27
2022-12-09T21:34:41.692Z,21.15
2022-12-09T21:37:26.797Z,20.83
2022-12-09T21:40:12.745Z,21.63
2022-12-09T21:42:57.689Z,22.67
2022-12-09T21:45:42.761Z,23.23
2022-12-09T21:48:28.851Z,25.63
2022-12-09T21:51:15.242Z,26.80
2022-12-09T21:54:00.865Z,26.08
2022-12-09T21:56:46.173Z,26.95
2022-12-09T21:59:31.393Z,24.77
2022-12-09T22:02:16.592Z,23.67
2022-12-09T22:05:01.915Z,22.58
2022-12-09T22:07:50.326Z,21.45
2022-12-09T22:10:38.652Z,22.08
2022-12-09T22:13:25.431Z,21.73
2022-12-09T22:16:12.929Z,21.65
2022-12-09T22:19:00.061Z,23.90
2022-12-09T22:21:46.000Z,26.40
2022-12-09T22:24:30.892Z,25.25
2022-12-09T22:27:15.878Z,27.17
2022-12-09T22:30:01.282Z,25.90
2022-12-09T22:32:50.422Z,26.45
2022-12-09T22:35:35.933Z,25.30
2022-12-09T22:38:20.893Z,27.13
2022-12-09T22:41:07.986Z,26.40
2022-12-09T22:43:55.072Z,25.75
2022-12-09T22:46:40.234Z,25.90
2022-12-09T22:49:25.472Z,24.83
2022-12-09T22:52:10.779Z,24.83
2022-12-09T22:54:55.961Z,23.52
2022-12-09T22:57:41.334Z,22.63
2022-12-09T23:00:26.392Z,22.55
2022-12-09T23:03:11.871Z,22.02
2022-12-09T23:06:00.969Z,22.85
2022-12-09T23:08:46.741Z,23.83
2022-12-09T23:11:31.858Z,21.77
2022-12-09T23:14:17.926Z,23.08
2022-12-09T23:17:02.855Z,23.20
2022-12-09T23:19:48.001Z,23.77
2022-12-09T23:22:32.887Z,21.75
2022-12-09T23:25:18.066Z,22.45
2022-12-09T23:28:04.400Z,22.38
2022-12-09T23:30:49.646Z,23.05
2022-12-09T23:33:36.180Z,23.75
2022-12-09T23:36:33.428Z,23.65
2022-12-09T23:39:19.180Z,23.98
2022-12-09T23:42:04.146Z,24.52
2022-12-09T23:44:49.677Z,23.83
2022-12-09T23:47:34.688Z,23.27
2022-12-09T23:50:19.887Z,23.00
2022-12-09T23:53:05.072Z,23.23
2022-12-09T23:55:50.346Z,22.45
2022-12-09T23:58:35.686Z,21.92
